sensor_id;sensor_type;location;lat;lon;timestamp;P1;durP1;ratioP1;P2;durP2;ratioP2
70150;SDS011;57517;43.562;19.540;2023-02-08T00:01:50;23.45;;;15.00;;
70150;SDS011;57517;43.562;19.540;2023-02-08T00:04:15;27.58;;;16.60;;
70150;SDS011;57517;43.562;19.540;2023-02-08T00:06:41;25.50;;;17.75;;
70150;SDS011;57517;43.562;19.540;2023-02-08T00:09:07;33.28;;;22.35;;
70150;SDS011;57517;43.562;19.540;2023-02-08T00:11:33;30.70;;;22.50;;
70150;SDS011;57517;43.562;19.540;2023-02-08T00:13:59;35.75;;;23.25;;
70150;SDS011;57517;43.562;19.540;2023-02-08T00:16:25;39.55;;;25.58;;
70150;SDS011;57517;43.562;19.540;2023-02-08T00:18:50;44.05;;;28.52;;
70150;SDS011;57517;43.562;19.540;2023-02-08T00:21:16;40.72;;;27.25;;
70150;SDS011;57517;43.562;19.540;2023-02-08T00:23:44;36.17;;;26.00;;
70150;SDS011;57517;43.562;19.540;2023-02-08T00:26:10;41.25;;;28.23;;
70150;SDS011;57517;43.562;19.540;2023-02-08T00:28:37;45.40;;;28.67;;
70150;SDS011;57517;43.562;19.540;2023-02-08T00:31:03;47.08;;;31.45;;
70150;SDS011;57517;43.562;19.540;2023-02-08T00:33:29;52.00;;;34.75;;
70150;SDS011;57517;43.562;19.540;2023-02-08T00:36:01;46.95;;;32.35;;
70150;SDS011;57517;43.562;19.540;2023-02-08T00:38:28;49.63;;;33.00;;
70150;SDS011;57517;43.562;19.540;2023-02-08T00:40:54;47.97;;;31.30;;
70150;SDS011;57517;43.562;19.540;2023-02-08T00:43:20;49.78;;;34.28;;
70150;SDS011;57517;43.562;19.540;2023-02-08T00:45:45;49.53;;;34.60;;
70150;SDS011;57517;43.562;19.540;2023-02-08T00:48:11;48.88;;;32.42;;
70150;SDS011;57517;43.562;19.540;2023-02-08T00:50:37;45.88;;;30.42;;
70150;SDS011;57517;43.562;19.540;2023-02-08T00:53:03;45.70;;;30.20;;
70150;SDS011;57517;43.562;19.540;2023-02-08T00:55:28;46.95;;;31.17;;
70150;SDS011;57517;43.562;19.540;2023-02-08T00:57:54;49.72;;;30.73;;
70150;SDS011;57517;43.562;19.540;2023-02-08T01:00:20;45.92;;;30.48;;
70150;SDS011;57517;43.562;19.540;2023-02-08T01:02:46;46.35;;;28.88;;
70150;SDS011;57517;43.562;19.540;2023-02-08T01:05:12;41.33;;;25.52;;
70150;SDS011;57517;43.562;19.540;2023-02-08T01:07:37;37.00;;;24.73;;
70150;SDS011;57517;43.562;19.540;2023-02-08T01:10:04;39.22;;;25.98;;
70150;SDS011;57517;43.562;19.540;2023-02-08T01:12:31;44.55;;;29.02;;
70150;SDS011;57517;43.562;19.540;2023-02-08T01:14:57;42.83;;;28.90;;
70150;SDS011;57517;43.562;19.540;2023-02-08T01:17:23;42.40;;;27.00;;
70150;SDS011;57517;43.562;19.540;2023-02-08T01:19:49;36.53;;;24.38;;
70150;SDS011;57517;43.562;19.540;2023-02-08T01:22:14;36.15;;;23.80;;
70150;SDS011;57517;43.562;19.540;2023-02-08T01:24:40;36.17;;;23.13;;
70150;SDS011;57517;43.562;19.540;2023-02-08T01:27:06;34.05;;;21.13;;
70150;SDS011;57517;43.562;19.540;2023-02-08T01:29:31;31.25;;;21.15;;
70150;SDS011;57517;43.562;19.540;2023-02-08T01:31:57;29.67;;;20.02;;
70150;SDS011;57517;43.562;19.540;2023-02-08T01:34:23;31.13;;;20.20;;
70150;SDS011;57517;43.562;19.540;2023-02-08T01:36:48;27.27;;;19.05;;
70150;SDS011;57517;43.562;19.540;2023-02-08T01:39:14;31.58;;;20.75;;
70150;SDS011;57517;43.562;19.540;2023-02-08T01:41:41;27.27;;;18.15;;
70150;SDS011;57517;43.562;19.540;2023-02-08T01:46:38;31.58;;;21.35;;
70150;SDS011;57517;43.562;19.540;2023-02-08T01:49:47;38.83;;;23.30;;
70150;SDS011;57517;43.562;19.540;2023-02-08T01:54:29;38.83;;;26.50;;
70150;SDS011;57517;43.562;19.540;2023-02-08T01:57:00;45.75;;;29.13;;
70150;SDS011;57517;43.562;19.540;2023-02-08T01:59:34;44.67;;;28.77;;
70150;SDS011;57517;43.562;19.540;2023-02-08T02:02:05;45.83;;;28.67;;
70150;SDS011;57517;43.562;19.540;2023-02-08T02:04:37;42.28;;;26.70;;
70150;SDS011;57517;43.562;19.540;2023-02-08T02:07:03;42.67;;;28.63;;
70150;SDS011;57517;43.562;19.540;2023-02-08T02:09:35;38.90;;;26.88;;
70150;SDS011;57517;43.562;19.540;2023-02-08T02:12:02;40.75;;;27.40;;
70150;SDS011;57517;43.562;19.540;2023-02-08T02:14:31;38.58;;;25.63;;
70150;SDS011;57517;43.562;19.540;2023-02-08T02:17:00;39.83;;;26.45;;
70150;SDS011;57517;43.562;19.540;2023-02-08T02:22:06;38.35;;;25.27;;
70150;SDS011;57517;43.562;19.540;2023-02-08T02:30:46;44.80;;;28.95;;
70150;SDS011;57517;43.562;19.540;2023-02-08T02:39:17;27.70;;;18.95;;
70150;SDS011;57517;43.562;19.540;2023-02-08T02:41:59;27.42;;;16.58;;
70150;SDS011;57517;43.562;19.540;2023-02-08T02:50:28;24.40;;;16.77;;
70150;SDS011;57517;43.562;19.540;2023-02-08T02:53:11;28.83;;;17.95;;
70150;SDS011;57517;43.562;19.540;2023-02-08T02:55:39;30.63;;;19.08;;
70150;SDS011;57517;43.562;19.540;2023-02-08T02:58:09;27.85;;;16.17;;
70150;SDS011;57517;43.562;19.540;2023-02-08T03:00:37;23.13;;;14.85;;
70150;SDS011;57517;43.562;19.540;2023-02-08T03:03:03;22.65;;;14.95;;
70150;SDS011;57517;43.562;19.540;2023-02-08T03:05:31;29.63;;;17.17;;
70150;SDS011;57517;43.562;19.540;2023-02-08T03:13:38;27.92;;;16.30;;
70150;SDS011;57517;43.562;19.540;2023-02-08T03:16:13;26.35;;;16.63;;
70150;SDS011;57517;43.562;19.540;2023-02-08T03:29:13;25.13;;;16.65;;
70150;SDS011;57517;43.562;19.540;2023-02-08T03:31:42;23.42;;;16.35;;
70150;SDS011;57517;43.562;19.540;2023-02-08T03:34:18;22.10;;;14.02;;
70150;SDS011;57517;43.562;19.540;2023-02-08T03:36:54;22.90;;;14.18;;
70150;SDS011;57517;43.562;19.540;2023-02-08T03:39:27;20.70;;;13.82;;
70150;SDS011;57517;43.562;19.540;2023-02-08T03:41:57;21.92;;;13.75;;
70150;SDS011;57517;43.562;19.540;2023-02-08T03:44:28;23.92;;;14.00;;
70150;SDS011;57517;43.562;19.540;2023-02-08T03:47:12;23.85;;;14.63;;
70150;SDS011;57517;43.562;19.540;2023-02-08T03:49:47;20.63;;;13.32;;
70150;SDS011;57517;43.562;19.540;2023-02-08T03:52:16;25.63;;;14.45;;
70150;SDS011;57517;43.562;19.540;2023-02-08T03:54:48;22.33;;;13.18;;
70150;SDS011;57517;43.562;19.540;2023-02-08T03:57:57;23.35;;;14.73;;
70150;SDS011;57517;43.562;19.540;2023-02-08T04:00:24;20.08;;;13.82;;
70150;SDS011;57517;43.562;19.540;2023-02-08T04:02:53;22.83;;;15.25;;
70150;SDS011;57517;43.562;19.540;2023-02-08T04:05:23;22.23;;;14.60;;
70150;SDS011;57517;43.562;19.540;2023-02-08T04:07:50;27.73;;;16.52;;
70150;SDS011;57517;43.562;19.540;2023-02-08T04:10:16;27.80;;;15.40;;
70150;SDS011;57517;43.562;19.540;2023-02-08T04:12:42;28.45;;;16.38;;
70150;SDS011;57517;43.562;19.540;2023-02-08T04:15:08;23.92;;;15.05;;
70150;SDS011;57517;43.562;19.540;2023-02-08T04:17:34;25.05;;;14.50;;
70150;SDS011;57517;43.562;19.540;2023-02-08T04:19:59;18.80;;;12.90;;
70150;SDS011;57517;43.562;19.540;2023-02-08T04:22:25;26.25;;;14.75;;
70150;SDS011;57517;43.562;19.540;2023-02-08T04:24:51;25.45;;;15.18;;
70150;SDS011;57517;43.562;19.540;2023-02-08T04:27:17;23.08;;;14.82;;
70150;SDS011;57517;43.562;19.540;2023-02-08T04:29:42;20.85;;;12.85;;
70150;SDS011;57517;43.562;19.540;2023-02-08T04:32:08;26.20;;;15.32;;
70150;SDS011;57517;43.562;19.540;2023-02-08T04:34:36;23.48;;;13.60;;
70150;SDS011;57517;43.562;19.540;2023-02-08T04:37:02;27.50;;;16.58;;
70150;SDS011;57517;43.562;19.540;2023-02-08T04:39:29;30.05;;;17.65;;
70150;SDS011;57517;43.562;19.540;2023-02-08T04:41:54;26.33;;;16.00;;
70150;SDS011;57517;43.562;19.540;2023-02-08T04:44:20;22.67;;;14.85;;
70150;SDS011;57517;43.562;19.540;2023-02-08T04:46:46;22.52;;;15.00;;
70150;SDS011;57517;43.562;19.540;2023-02-08T04:49:12;24.52;;;14.50;;
70150;SDS011;57517;43.562;19.540;2023-02-08T04:51:37;24.92;;;15.77;;
70150;SDS011;57517;43.562;19.540;2023-02-08T04:54:03;25.50;;;14.65;;
70150;SDS011;57517;43.562;19.540;2023-02-08T04:56:29;26.85;;;16.00;;
70150;SDS011;57517;43.562;19.540;2023-02-08T04:58:54;24.10;;;16.25;;
70150;SDS011;57517;43.562;19.540;2023-02-08T05:01:20;26.63;;;17.30;;
70150;SDS011;57517;43.562;19.540;2023-02-08T05:03:46;27.73;;;17.58;;
70150;SDS011;57517;43.562;19.540;2023-02-08T05:06:12;26.13;;;15.27;;
70150;SDS011;57517;43.562;19.540;2023-02-08T05:08:38;27.75;;;16.48;;
70150;SDS011;57517;43.562;19.540;2023-02-08T05:11:04;29.77;;;16.38;;
70150;SDS011;57517;43.562;19.540;2023-02-08T05:13:30;24.58;;;16.52;;
70150;SDS011;57517;43.562;19.540;2023-02-08T05:15:56;23.38;;;16.90;;
70150;SDS011;57517;43.562;19.540;2023-02-08T05:18:21;25.20;;;15.07;;
70150;SDS011;57517;43.562;19.540;2023-02-08T05:20:54;24.40;;;15.32;;
70150;SDS011;57517;43.562;19.540;2023-02-08T05:23:20;24.05;;;15.88;;
70150;SDS011;57517;43.562;19.540;2023-02-08T05:25:46;23.58;;;15.57;;
70150;SDS011;57517;43.562;19.540;2023-02-08T05:28:12;23.88;;;17.25;;
70150;SDS011;57517;43.562;19.540;2023-02-08T05:30:37;25.00;;;17.00;;
70150;SDS011;57517;43.562;19.540;2023-02-08T05:33:03;35.88;;;22.15;;
70150;SDS011;57517;43.562;19.540;2023-02-08T05:35:29;47.10;;;30.50;;
70150;SDS011;57517;43.562;19.540;2023-02-08T05:37:54;35.00;;;23.33;;
70150;SDS011;57517;43.562;19.540;2023-02-08T05:40:20;26.58;;;17.73;;
70150;SDS011;57517;43.562;19.540;2023-02-08T05:42:46;23.88;;;15.60;;
70150;SDS011;57517;43.562;19.540;2023-02-08T05:45:12;25.10;;;16.35;;
70150;SDS011;57517;43.562;19.540;2023-02-08T05:47:38;25.75;;;15.50;;
70150;SDS011;57517;43.562;19.540;2023-02-08T05:50:04;24.90;;;15.68;;
70150;SDS011;57517;43.562;19.540;2023-02-08T05:52:30;25.77;;;15.10;;
70150;SDS011;57517;43.562;19.540;2023-02-08T05:54:56;27.08;;;15.30;;
70150;SDS011;57517;43.562;19.540;2023-02-08T05:57:21;22.92;;;14.88;;
70150;SDS011;57517;43.562;19.540;2023-02-08T05:59:47;25.00;;;16.08;;
70150;SDS011;57517;43.562;19.540;2023-02-08T06:02:13;29.85;;;16.80;;
70150;SDS011;57517;43.562;19.540;2023-02-08T06:04:39;21.90;;;14.98;;
70150;SDS011;57517;43.562;19.540;2023-02-08T06:07:05;29.27;;;17.70;;
70150;SDS011;57517;43.562;19.540;2023-02-08T06:09:30;27.17;;;17.35;;
70150;SDS011;57517;43.562;19.540;2023-02-08T06:11:56;24.50;;;16.60;;
70150;SDS011;57517;43.562;19.540;2023-02-08T06:14:22;35.53;;;20.55;;
70150;SDS011;57517;43.562;19.540;2023-02-08T06:16:47;36.80;;;24.95;;
70150;SDS011;57517;43.562;19.540;2023-02-08T06:19:13;40.97;;;25.23;;
70150;SDS011;57517;43.562;19.540;2023-02-08T06:21:39;36.83;;;26.40;;
70150;SDS011;57517;43.562;19.540;2023-02-08T06:24:06;45.50;;;27.63;;
70150;SDS011;57517;43.562;19.540;2023-02-08T06:26:32;34.53;;;21.85;;
70150;SDS011;57517;43.562;19.540;2023-02-08T06:28:58;33.72;;;22.15;;
70150;SDS011;57517;43.562;19.540;2023-02-08T06:31:24;33.22;;;20.65;;
70150;SDS011;57517;43.562;19.540;2023-02-08T06:33:50;29.75;;;19.35;;
70150;SDS011;57517;43.562;19.540;2023-02-08T06:36:16;30.30;;;18.40;;
70150;SDS011;57517;43.562;19.540;2023-02-08T06:38:42;31.45;;;17.13;;
70150;SDS011;57517;43.562;19.540;2023-02-08T06:41:07;37.30;;;23.80;;
70150;SDS011;57517;43.562;19.540;2023-02-08T06:43:33;28.80;;;19.00;;
70150;SDS011;57517;43.562;19.540;2023-02-08T06:45:59;35.80;;;24.02;;
70150;SDS011;57517;43.562;19.540;2023-02-08T06:48:28;32.67;;;19.58;;
70150;SDS011;57517;43.562;19.540;2023-02-08T06:50:55;31.70;;;21.63;;
70150;SDS011;57517;43.562;19.540;2023-02-08T06:53:21;30.52;;;20.05;;
70150;SDS011;57517;43.562;19.540;2023-02-08T06:55:47;29.10;;;19.95;;
70150;SDS011;57517;43.562;19.540;2023-02-08T06:58:13;33.40;;;22.77;;
70150;SDS011;57517;43.562;19.540;2023-02-08T07:00:39;34.97;;;24.27;;
70150;SDS011;57517;43.562;19.540;2023-02-08T07:03:05;37.17;;;24.23;;
70150;SDS011;57517;43.562;19.540;2023-02-08T07:05:34;31.58;;;19.75;;
70150;SDS011;57517;43.562;19.540;2023-02-08T07:07:59;37.83;;;25.48;;
70150;SDS011;57517;43.562;19.540;2023-02-08T07:10:26;40.47;;;23.20;;
70150;SDS011;57517;43.562;19.540;2023-02-08T07:12:51;31.42;;;20.52;;
70150;SDS011;57517;43.562;19.540;2023-02-08T07:15:17;31.27;;;21.20;;
70150;SDS011;57517;43.562;19.540;2023-02-08T07:17:43;33.80;;;21.88;;
70150;SDS011;57517;43.562;19.540;2023-02-08T07:20:09;28.98;;;20.88;;
70150;SDS011;57517;43.562;19.540;2023-02-08T07:22:36;34.75;;;21.17;;
70150;SDS011;57517;43.562;19.540;2023-02-08T07:25:03;35.00;;;23.15;;
70150;SDS011;57517;43.562;19.540;2023-02-08T07:27:29;33.83;;;22.80;;
70150;SDS011;57517;43.562;19.540;2023-02-08T07:29:55;35.08;;;22.50;;
70150;SDS011;57517;43.562;19.540;2023-02-08T07:32:21;31.20;;;21.67;;
70150;SDS011;57517;43.562;19.540;2023-02-08T07:34:46;36.10;;;22.02;;
70150;SDS011;57517;43.562;19.540;2023-02-08T07:37:12;32.35;;;19.92;;
70150;SDS011;57517;43.562;19.540;2023-02-08T07:39:38;29.67;;;20.60;;
70150;SDS011;57517;43.562;19.540;2023-02-08T07:42:03;33.53;;;21.25;;
70150;SDS011;57517;43.562;19.540;2023-02-08T07:44:30;31.65;;;20.80;;
70150;SDS011;57517;43.562;19.540;2023-02-08T07:46:56;35.25;;;21.58;;
70150;SDS011;57517;43.562;19.540;2023-02-08T07:49:22;33.85;;;23.40;;
70150;SDS011;57517;43.562;19.540;2023-02-08T07:51:48;38.20;;;25.67;;
70150;SDS011;57517;43.562;19.540;2023-02-08T07:54:13;33.35;;;22.63;;
70150;SDS011;57517;43.562;19.540;2023-02-08T07:56:39;35.88;;;25.30;;
70150;SDS011;57517;43.562;19.540;2023-02-08T07:59:05;34.72;;;24.27;;
70150;SDS011;57517;43.562;19.540;2023-02-08T08:01:31;36.47;;;23.65;;
70150;SDS011;57517;43.562;19.540;2023-02-08T08:03:57;40.65;;;23.95;;
70150;SDS011;57517;43.562;19.540;2023-02-08T08:06:22;38.90;;;23.73;;
70150;SDS011;57517;43.562;19.540;2023-02-08T08:08:48;33.65;;;22.75;;
70150;SDS011;57517;43.562;19.540;2023-02-08T08:11:15;33.10;;;21.90;;
70150;SDS011;57517;43.562;19.540;2023-02-08T08:13:41;39.22;;;24.90;;
70150;SDS011;57517;43.562;19.540;2023-02-08T08:16:07;37.20;;;23.73;;
70150;SDS011;57517;43.562;19.540;2023-02-08T08:18:33;32.05;;;20.63;;
70150;SDS011;57517;43.562;19.540;2023-02-08T08:21:00;36.78;;;23.27;;
70150;SDS011;57517;43.562;19.540;2023-02-08T08:23:26;38.63;;;23.98;;
70150;SDS011;57517;43.562;19.540;2023-02-08T08:25:53;35.53;;;23.08;;
70150;SDS011;57517;43.562;19.540;2023-02-08T08:28:19;34.05;;;22.17;;
70150;SDS011;57517;43.562;19.540;2023-02-08T08:30:45;32.28;;;22.00;;
70150;SDS011;57517;43.562;19.540;2023-02-08T08:33:11;35.03;;;23.00;;
70150;SDS011;57517;43.562;19.540;2023-02-08T08:35:38;28.02;;;19.85;;
70150;SDS011;57517;43.562;19.540;2023-02-08T08:38:05;30.73;;;19.23;;
70150;SDS011;57517;43.562;19.540;2023-02-08T08:40:30;28.00;;;19.58;;
70150;SDS011;57517;43.562;19.540;2023-02-08T08:42:56;27.23;;;18.20;;
70150;SDS011;57517;43.562;19.540;2023-02-08T08:45:22;27.73;;;18.08;;
70150;SDS011;57517;43.562;19.540;2023-02-08T08:47:48;28.08;;;18.85;;
70150;SDS011;57517;43.562;19.540;2023-02-08T08:50:14;33.05;;;21.70;;
70150;SDS011;57517;43.562;19.540;2023-02-08T08:52:39;26.00;;;18.25;;
70150;SDS011;57517;43.562;19.540;2023-02-08T08:55:06;25.30;;;16.75;;
70150;SDS011;57517;43.562;19.540;2023-02-08T08:57:32;19.65;;;14.45;;
70150;SDS011;57517;43.562;19.540;2023-02-08T08:59:58;24.80;;;13.70;;
70150;SDS011;57517;43.562;19.540;2023-02-08T09:02:24;29.05;;;20.08;;
70150;SDS011;57517;43.562;19.540;2023-02-08T09:04:49;45.08;;;35.15;;
70150;SDS011;57517;43.562;19.540;2023-02-08T09:07:15;33.53;;;23.67;;
70150;SDS011;57517;43.562;19.540;2023-02-08T09:09:41;35.00;;;22.92;;
70150;SDS011;57517;43.562;19.540;2023-02-08T09:12:11;32.97;;;21.13;;
70150;SDS011;57517;43.562;19.540;2023-02-08T09:14:38;42.00;;;31.10;;
70150;SDS011;57517;43.562;19.540;2023-02-08T09:17:04;31.60;;;25.23;;
70150;SDS011;57517;43.562;19.540;2023-02-08T09:19:30;23.35;;;14.02;;
70150;SDS011;57517;43.562;19.540;2023-02-08T09:21:55;22.92;;;16.05;;
70150;SDS011;57517;43.562;19.540;2023-02-08T09:24:22;29.35;;;20.40;;
70150;SDS011;57517;43.562;19.540;2023-02-08T09:26:48;34.90;;;21.38;;
70150;SDS011;57517;43.562;19.540;2023-02-08T09:29:14;46.63;;;33.60;;
70150;SDS011;57517;43.562;19.540;2023-02-08T09:31:39;37.92;;;28.95;;
70150;SDS011;57517;43.562;19.540;2023-02-08T09:34:06;41.08;;;27.45;;
70150;SDS011;57517;43.562;19.540;2023-02-08T09:36:32;29.65;;;21.55;;
70150;SDS011;57517;43.562;19.540;2023-02-08T09:39:01;38.00;;;26.67;;
70150;SDS011;57517;43.562;19.540;2023-02-08T09:47:19;41.70;;;29.00;;
70150;SDS011;57517;43.562;19.540;2023-02-08T09:49:58;37.25;;;25.80;;
70150;SDS011;57517;43.562;19.540;2023-02-08T09:52:50;39.17;;;25.95;;
70150;SDS011;57517;43.562;19.540;2023-02-08T09:55:35;37.00;;;26.55;;
70150;SDS011;57517;43.562;19.540;2023-02-08T09:58:07;43.58;;;28.17;;
70150;SDS011;57517;43.562;19.540;2023-02-08T10:00:56;41.47;;;30.10;;
70150;SDS011;57517;43.562;19.540;2023-02-08T10:06:05;39.58;;;28.52;;
70150;SDS011;57517;43.562;19.540;2023-02-08T10:08:33;38.30;;;27.80;;
70150;SDS011;57517;43.562;19.540;2023-02-08T10:24:45;35.83;;;23.83;;
70150;SDS011;57517;43.562;19.540;2023-02-08T10:38:01;37.45;;;24.27;;
70150;SDS011;57517;43.562;19.540;2023-02-08T10:41:00;45.22;;;31.30;;
70150;SDS011;57517;43.562;19.540;2023-02-08T10:51:33;49.38;;;33.10;;
70150;SDS011;57517;43.562;19.540;2023-02-08T10:53:58;46.78;;;30.85;;
70150;SDS011;57517;43.562;19.540;2023-02-08T10:59:00;44.05;;;29.23;;
70150;SDS011;57517;43.562;19.540;2023-02-08T11:01:31;42.22;;;29.30;;
70150;SDS011;57517;43.562;19.540;2023-02-08T11:04:07;38.33;;;26.02;;
70150;SDS011;57517;43.562;19.540;2023-02-08T11:06:35;36.03;;;23.30;;
70150;SDS011;57517;43.562;19.540;2023-02-08T11:09:02;54.08;;;26.92;;
70150;SDS011;57517;43.562;19.540;2023-02-08T11:11:32;33.72;;;22.17;;
70150;SDS011;57517;43.562;19.540;2023-02-08T11:14:07;36.03;;;24.17;;
70150;SDS011;57517;43.562;19.540;2023-02-08T11:16:37;43.95;;;27.55;;
70150;SDS011;57517;43.562;19.540;2023-02-08T11:19:03;48.78;;;32.65;;
70150;SDS011;57517;43.562;19.540;2023-02-08T11:21:32;41.78;;;31.30;;
70150;SDS011;57517;43.562;19.540;2023-02-08T11:24:03;39.17;;;25.88;;
70150;SDS011;57517;43.562;19.540;2023-02-08T11:26:39;34.20;;;22.02;;
70150;SDS011;57517;43.562;19.540;2023-02-08T11:31:37;32.88;;;22.33;;
70150;SDS011;57517;43.562;19.540;2023-02-08T11:34:06;35.78;;;23.23;;
70150;SDS011;57517;43.562;19.540;2023-02-08T11:36:34;34.17;;;22.92;;
70150;SDS011;57517;43.562;19.540;2023-02-08T11:39:53;67.72;;;52.22;;
70150;SDS011;57517;43.562;19.540;2023-02-08T11:42:03;38.30;;;27.90;;
70150;SDS011;57517;43.562;19.540;2023-02-08T11:44:33;45.08;;;31.95;;
70150;SDS011;57517;43.562;19.540;2023-02-08T11:47:05;32.70;;;21.33;;
70150;SDS011;57517;43.562;19.540;2023-02-08T11:52:01;37.78;;;25.27;;
70150;SDS011;57517;43.562;19.540;2023-02-08T11:54:33;49.75;;;35.00;;
70150;SDS011;57517;43.562;19.540;2023-02-08T11:57:12;53.13;;;35.80;;
70150;SDS011;57517;43.562;19.540;2023-02-08T11:59:49;43.53;;;29.55;;
70150;SDS011;57517;43.562;19.540;2023-02-08T12:04:58;42.13;;;27.67;;
70150;SDS011;57517;43.562;19.540;2023-02-08T12:13:05;39.08;;;26.25;;
70150;SDS011;57517;43.562;19.540;2023-02-08T12:21:27;39.35;;;25.55;;
70150;SDS011;57517;43.562;19.540;2023-02-08T12:36:23;51.72;;;37.45;;
70150;SDS011;57517;43.562;19.540;2023-02-08T12:39:03;52.72;;;34.30;;
70150;SDS011;57517;43.562;19.540;2023-02-08T12:42:15;36.53;;;26.90;;
70150;SDS011;57517;43.562;19.540;2023-02-08T12:45:11;39.13;;;27.30;;
70150;SDS011;57517;43.562;19.540;2023-02-08T12:50:51;27.95;;;18.67;;
70150;SDS011;57517;43.562;19.540;2023-02-08T12:53:38;29.45;;;19.38;;
70150;SDS011;57517;43.562;19.540;2023-02-08T12:56:18;31.17;;;19.38;;
70150;SDS011;57517;43.562;19.540;2023-02-08T12:58:49;26.38;;;18.30;;
70150;SDS011;57517;43.562;19.540;2023-02-08T13:03:47;25.15;;;17.05;;
70150;SDS011;57517;43.562;19.540;2023-02-08T13:06:43;22.63;;;15.07;;
70150;SDS011;57517;43.562;19.540;2023-02-08T13:09:19;22.58;;;16.23;;
70150;SDS011;57517;43.562;19.540;2023-02-08T13:11:53;25.92;;;17.60;;
70150;SDS011;57517;43.562;19.540;2023-02-08T13:14:30;25.98;;;15.98;;
70150;SDS011;57517;43.562;19.540;2023-02-08T13:17:10;30.17;;;19.08;;
70150;SDS011;57517;43.562;19.540;2023-02-08T13:22:20;32.47;;;22.77;;
70150;SDS011;57517;43.562;19.540;2023-02-08T13:24:46;24.30;;;18.30;;
70150;SDS011;57517;43.562;19.540;2023-02-08T13:27:15;27.40;;;19.30;;
70150;SDS011;57517;43.562;19.540;2023-02-08T13:29:46;46.80;;;38.50;;
70150;SDS011;57517;43.562;19.540;2023-02-08T13:32:25;40.75;;;25.73;;
70150;SDS011;57517;43.562;19.540;2023-02-08T13:35:02;40.47;;;25.02;;
70150;SDS011;57517;43.562;19.540;2023-02-08T13:37:37;31.38;;;21.15;;
70150;SDS011;57517;43.562;19.540;2023-02-08T13:45:03;40.25;;;28.10;;
70150;SDS011;57517;43.562;19.540;2023-02-08T13:47:33;34.35;;;22.33;;
70150;SDS011;57517;43.562;19.540;2023-02-08T13:52:51;45.70;;;26.70;;
70150;SDS011;57517;43.562;19.540;2023-02-08T14:01:00;27.27;;;20.83;;
70150;SDS011;57517;43.562;19.540;2023-02-08T14:03:26;33.08;;;23.27;;
70150;SDS011;57517;43.562;19.540;2023-02-08T14:08:55;23.27;;;17.33;;
70150;SDS011;57517;43.562;19.540;2023-02-08T14:17:24;34.28;;;22.13;;
70150;SDS011;57517;43.562;19.540;2023-02-08T14:19:54;26.17;;;20.05;;
70150;SDS011;57517;43.562;19.540;2023-02-08T14:22:35;39.63;;;27.25;;
70150;SDS011;57517;43.562;19.540;2023-02-08T14:30:48;18.85;;;12.98;;
70150;SDS011;57517;43.562;19.540;2023-02-08T14:33:18;28.67;;;18.05;;
70150;SDS011;57517;43.562;19.540;2023-02-08T14:35:56;20.40;;;14.70;;
70150;SDS011;57517;43.562;19.540;2023-02-08T14:49:34;22.60;;;14.15;;
70150;SDS011;57517;43.562;19.540;2023-02-08T14:57:24;23.17;;;15.50;;
70150;SDS011;57517;43.562;19.540;2023-02-08T14:59:54;24.77;;;15.52;;
70150;SDS011;57517;43.562;19.540;2023-02-08T15:02:23;29.92;;;19.42;;
70150;SDS011;57517;43.562;19.540;2023-02-08T15:04:55;23.30;;;15.38;;
70150;SDS011;57517;43.562;19.540;2023-02-08T15:07:30;27.83;;;17.08;;
70150;SDS011;57517;43.562;19.540;2023-02-08T15:10:08;26.33;;;17.30;;
70150;SDS011;57517;43.562;19.540;2023-02-08T15:12:42;24.42;;;16.17;;
70150;SDS011;57517;43.562;19.540;2023-02-08T15:18:01;25.23;;;15.52;;
70150;SDS011;57517;43.562;19.540;2023-02-08T15:20:29;23.95;;;16.52;;
70150;SDS011;57517;43.562;19.540;2023-02-08T15:22:57;32.28;;;20.77;;
70150;SDS011;57517;43.562;19.540;2023-02-08T15:25:28;25.02;;;16.10;;
70150;SDS011;57517;43.562;19.540;2023-02-08T15:27:59;24.02;;;16.33;;
70150;SDS011;57517;43.562;19.540;2023-02-08T15:30:31;24.85;;;17.05;;
70150;SDS011;57517;43.562;19.540;2023-02-08T15:33:00;25.50;;;16.65;;
70150;SDS011;57517;43.562;19.540;2023-02-08T15:35:27;23.88;;;15.18;;
70150;SDS011;57517;43.562;19.540;2023-02-08T15:37:57;24.52;;;15.20;;
70150;SDS011;57517;43.562;19.540;2023-02-08T15:40:27;25.42;;;17.17;;
70150;SDS011;57517;43.562;19.540;2023-02-08T15:43:01;27.20;;;19.90;;
70150;SDS011;57517;43.562;19.540;2023-02-08T15:45:36;21.85;;;15.45;;
70150;SDS011;57517;43.562;19.540;2023-02-08T15:48:03;27.23;;;17.10;;
70150;SDS011;57517;43.562;19.540;2023-02-08T15:50:30;21.45;;;15.13;;
70150;SDS011;57517;43.562;19.540;2023-02-08T15:53:01;27.75;;;16.83;;
70150;SDS011;57517;43.562;19.540;2023-02-08T15:55:34;30.77;;;18.75;;
70150;SDS011;57517;43.562;19.540;2023-02-08T15:58:05;35.72;;;24.95;;
70150;SDS011;57517;43.562;19.540;2023-02-08T16:00:52;26.00;;;16.45;;
70150;SDS011;57517;43.562;19.540;2023-02-08T16:03:20;34.97;;;23.35;;
70150;SDS011;57517;43.562;19.540;2023-02-08T16:06:08;25.27;;;17.15;;
70150;SDS011;57517;43.562;19.540;2023-02-08T16:08:35;28.50;;;18.15;;
70150;SDS011;57517;43.562;19.540;2023-02-08T16:11:12;26.55;;;18.35;;
70150;SDS011;57517;43.562;19.540;2023-02-08T16:13:45;47.00;;;29.27;;
70150;SDS011;57517;43.562;19.540;2023-02-08T16:18:57;27.42;;;16.90;;
70150;SDS011;57517;43.562;19.540;2023-02-08T16:26:39;28.58;;;16.77;;
70150;SDS011;57517;43.562;19.540;2023-02-08T16:29:25;22.08;;;14.55;;
70150;SDS011;57517;43.562;19.540;2023-02-08T16:32:05;24.05;;;15.00;;
70150;SDS011;57517;43.562;19.540;2023-02-08T16:34:42;22.67;;;14.82;;
70150;SDS011;57517;43.562;19.540;2023-02-08T16:37:18;27.65;;;16.73;;
70150;SDS011;57517;43.562;19.540;2023-02-08T16:42:22;26.95;;;16.65;;
70150;SDS011;57517;43.562;19.540;2023-02-08T16:47:36;20.30;;;13.30;;
70150;SDS011;57517;43.562;19.540;2023-02-08T16:50:09;26.65;;;17.58;;
70150;SDS011;57517;43.562;19.540;2023-02-08T16:52:51;28.73;;;18.25;;
70150;SDS011;57517;43.562;19.540;2023-02-08T16:55:25;30.52;;;20.65;;
70150;SDS011;57517;43.562;19.540;2023-02-08T16:57:54;33.80;;;23.60;;
70150;SDS011;57517;43.562;19.540;2023-02-08T17:02:47;29.45;;;16.67;;
70150;SDS011;57517;43.562;19.540;2023-02-08T17:05:13;21.13;;;14.23;;
70150;SDS011;57517;43.562;19.540;2023-02-08T17:07:40;22.88;;;14.55;;
70150;SDS011;57517;43.562;19.540;2023-02-08T17:10:06;25.33;;;16.38;;
70150;SDS011;57517;43.562;19.540;2023-02-08T17:12:36;24.35;;;18.00;;
70150;SDS011;57517;43.562;19.540;2023-02-08T17:15:02;24.02;;;14.70;;
70150;SDS011;57517;43.562;19.540;2023-02-08T17:17:28;22.30;;;14.93;;
70150;SDS011;57517;43.562;19.540;2023-02-08T17:19:54;28.63;;;17.60;;
70150;SDS011;57517;43.562;19.540;2023-02-08T17:22:20;25.45;;;16.30;;
70150;SDS011;57517;43.562;19.540;2023-02-08T17:24:46;30.30;;;18.33;;
70150;SDS011;57517;43.562;19.540;2023-02-08T17:27:12;26.90;;;17.08;;
70150;SDS011;57517;43.562;19.540;2023-02-08T17:29:38;23.88;;;17.27;;